createdAt,value
2016-12-18T00:00:16.414Z,89.29
2016-12-18T00:00:43.074Z,89.29
2016-12-18T00:01:14.383Z,89.13
2016-12-18T00:01:36.124Z,89.32
2016-12-18T00:01:58.853Z,89.20
2016-12-18T00:02:21.599Z,89.13
2016-12-18T00:02:44.518Z,88.96
2016-12-18T00:03:07.258Z,88.79
2016-12-18T00:03:28.990Z,88.67
2016-12-18T00:03:55.492Z,88.76
2016-12-18T00:04:18.319Z,88.76
2016-12-18T00:04:41.083Z,88.83
2016-12-18T00:05:12.387Z,89.20
2016-12-18T00:05:34.266Z,88.99
2016-12-18T00:05:56.096Z,88.85
2016-12-18T00:06:17.853Z,88.66
2016-12-18T00:06:39.594Z,88.64
2016-12-18T00:07:01.322Z,88.82
2016-12-18T00:07:23.062Z,89.01
2016-12-18T00:07:49.661Z,89.20
2016-12-18T00:08:11.575Z,89.27
2016-12-18T00:08:33.352Z,89.22
2016-12-18T00:09:24.690Z,89.20
2016-12-18T00:09:46.478Z,89.20
2016-12-18T00:10:08.348Z,89.06
2016-12-18T00:10:36.996Z,89.19
2016-12-18T00:10:58.679Z,89.33
2016-12-18T00:11:21.543Z,89.43
2016-12-18T00:11:49.037Z,89.55
2016-12-18T00:12:11.764Z,89.53
2016-12-18T00:12:35.499Z,89.46
2016-12-18T00:13:02.008Z,89.45
2016-12-18T00:13:28.515Z,89.32
2016-12-18T00:13:55.119Z,89.22
2016-12-18T00:14:17.111Z,89.29
2016-12-18T00:14:40.152Z,89.35
2016-12-18T00:15:01.920Z,89.41
2016-12-18T00:15:28.613Z,89.58
2016-12-18T00:15:51.373Z,89.55
2016-12-18T00:16:15.121Z,89.38
2016-12-18T00:16:37.028Z,89.12
2016-12-18T00:16:58.895Z,89.03
2016-12-18T00:17:20.923Z,89.28
2016-12-18T00:17:42.669Z,89.22
2016-12-18T00:18:05.417Z,89.29
2016-12-18T00:18:27.236Z,89.35
2016-12-18T00:18:50.064Z,89.31
2016-12-18T00:19:13.189Z,89.20
2016-12-18T00:19:44.457Z,89.22
2016-12-18T00:20:07.359Z,89.17
2016-12-18T00:20:31.920Z,89.25
2016-12-18T00:20:54.659Z,89.28
2016-12-18T00:21:16.391Z,89.29
2016-12-18T00:22:05.628Z,89.09
2016-12-18T00:22:27.368Z,89.20
2016-12-18T00:22:54.880Z,89.37
2016-12-18T00:23:16.863Z,89.42
2016-12-18T00:23:38.587Z,89.66
2016-12-18T00:24:00.335Z,89.79
2016-12-18T00:24:22.231Z,89.85
2016-12-18T00:24:53.493Z,90.01
2016-12-18T00:25:18.020Z,89.87
2016-12-18T00:25:39.789Z,89.77
2016-12-18T00:26:01.696Z,89.89
2016-12-18T00:26:50.941Z,89.67
2016-12-18T00:27:13.670Z,89.65
2016-12-18T00:27:41.180Z,89.70
2016-12-18T00:28:02.912Z,89.66
2016-12-18T00:28:25.663Z,89.57
2016-12-18T00:28:47.439Z,89.58
2016-12-18T00:29:35.718Z,89.36
2016-12-18T00:29:58.465Z,89.27
2016-12-18T00:30:21.247Z,89.23
2016-12-18T00:30:42.999Z,89.13
2016-12-18T00:31:05.728Z,89.03
2016-12-18T00:31:32.230Z,89.10
2016-12-18T00:31:54.980Z,89.07
2016-12-18T00:32:16.725Z,89.16
2016-12-18T00:32:38.460Z,89.19
2016-12-18T00:33:26.712Z,89.22
2016-12-18T00:33:49.455Z,89.19
2016-12-18T00:34:11.209Z,89.16
2016-12-18T00:34:33.092Z,89.11
2016-12-18T00:35:04.505Z,89.16
2016-12-18T00:35:26.308Z,89.11
2016-12-18T00:35:52.878Z,89.21
2016-12-18T00:36:17.537Z,89.37
2016-12-18T00:36:44.071Z,89.41
2016-12-18T00:37:05.841Z,89.45
2016-12-18T00:37:32.405Z,89.56
2016-12-18T00:37:54.142Z,89.70
2016-12-18T00:38:42.414Z,90.08
2016-12-18T00:39:05.237Z,90.19
2016-12-18T00:39:27.990Z,90.29
2016-12-18T00:39:49.753Z,90.06
2016-12-18T00:40:21.018Z,89.62
2016-12-18T00:40:43.866Z,89.31
2016-12-18T00:41:05.773Z,89.29
2016-12-18T00:41:32.289Z,89.34
2016-12-18T00:41:55.018Z,89.28
2016-12-18T00:42:16.747Z,89.31
2016-12-18T00:42:43.253Z,89.34
2016-12-18T00:43:05.991Z,89.26
2016-12-18T00:43:28.729Z,89.30
2016-12-18T00:44:17.968Z,89.29
2016-12-18T00:44:50.238Z,89.35
2016-12-18T00:45:12.981Z,89.11
2016-12-18T00:45:49.016Z,88.94
2016-12-18T00:46:26.081Z,89.27
2016-12-18T00:46:47.949Z,89.17
2016-12-18T00:47:10.273Z,89.17
2016-12-18T00:47:32.245Z,89.26
2016-12-18T00:47:59.789Z,89.26
2016-12-18T00:48:35.899Z,89.20
2016-12-18T00:49:02.922Z,89.31
2016-12-18T00:49:24.642Z,89.34
2016-12-18T00:49:46.376Z,89.28
2016-12-18T00:50:09.134Z,89.37
2016-12-18T00:50:36.647Z,89.22
2016-12-18T00:51:37.251Z,89.42
2016-12-18T00:51:59.109Z,89.21
2016-12-18T00:52:30.383Z,89.31
2016-12-18T00:52:56.884Z,89.43
2016-12-18T00:53:19.638Z,89.43
2016-12-18T00:53:46.174Z,89.35
2016-12-18T00:54:08.032Z,89.34
2016-12-18T00:54:29.814Z,89.36
2016-12-18T00:54:51.653Z,89.38
2016-12-18T00:55:23.926Z,89.47
2016-12-18T00:55:50.428Z,89.60
2016-12-18T00:56:16.974Z,89.49
2016-12-18T00:56:44.491Z,89.27
2016-12-18T00:57:07.325Z,89.21
2016-12-18T00:57:33.876Z,89.11
2016-12-18T00:58:00.379Z,89.16
2016-12-18T00:58:23.208Z,89.03
2016-12-18T00:58:44.985Z,89.07
2016-12-18T00:59:07.835Z,89.09
2016-12-18T00:59:30.584Z,89.03
2016-12-18T00:59:52.385Z,88.99
2016-12-18T01:00:15.113Z,89.09
2016-12-18T01:00:37.108Z,89.13
2016-12-18T01:00:59.022Z,89.28
2016-12-18T01:01:20.772Z,89.36
2016-12-18T01:01:43.499Z,89.13
2016-12-18T01:03:03.255Z,89.33
2016-12-18T01:03:24.986Z,89.43
2016-12-18T01:03:56.251Z,89.33
2016-12-18T01:04:17.988Z,89.23
2016-12-18T01:05:06.266Z,89.42
2016-12-18T01:05:28.021Z,89.44
2016-12-18T01:05:55.563Z,89.83
2016-12-18T01:06:49.945Z,89.86
2016-12-18T01:07:16.472Z,89.69
2016-12-18T01:07:38.272Z,89.71
2016-12-18T01:08:00.013Z,89.61
2016-12-18T01:08:22.057Z,89.58
2016-12-18T01:08:48.643Z,89.59
2016-12-18T01:09:11.435Z,89.70
2016-12-18T01:10:31.090Z,89.92
2016-12-18T01:11:19.482Z,89.81
2016-12-18T01:11:45.980Z,89.93
2016-12-18T01:12:08.707Z,89.94
2016-12-18T01:12:30.472Z,89.83
2016-12-18T01:12:52.404Z,89.82
2016-12-18T01:13:15.316Z,89.76
2016-12-18T01:13:38.257Z,89.88
2016-12-18T01:14:00.331Z,89.76
2016-12-18T01:14:54.718Z,89.62
2016-12-18T01:15:16.541Z,89.75
2016-12-18T01:15:38.381Z,89.80
2016-12-18T01:16:26.787Z,89.77
2016-12-18T01:16:49.576Z,89.85
2016-12-18T01:17:11.310Z,90.06
2016-12-18T01:17:33.039Z,90.05
2016-12-18T01:17:54.784Z,90.03
2016-12-18T01:18:21.281Z,90.04
2016-12-18T01:18:43.019Z,90.07
2016-12-18T01:19:04.791Z,90.11
2016-12-18T01:19:31.288Z,90.25
2016-12-18T01:19:53.026Z,90.11
2016-12-18T01:20:14.763Z,90.04
2016-12-18T01:20:37.516Z,90.21
2016-12-18T01:21:02.141Z,90.19
2016-12-18T01:21:24.879Z,89.99
2016-12-18T01:21:47.716Z,90.04
2016-12-18T01:22:11.498Z,90.10
2016-12-18T01:22:42.767Z,90.22
2016-12-18T01:23:05.502Z,90.37
2016-12-18T01:23:30.233Z,90.40
2016-12-18T01:23:57.024Z,90.45
2016-12-18T01:24:19.094Z,90.39
2016-12-18T01:24:50.363Z,90.24
2016-12-18T01:25:17.859Z,90.14
2016-12-18T01:25:39.616Z,90.33
2016-12-18T01:26:02.358Z,90.36
2016-12-18T01:26:24.093Z,90.59
2016-12-18T01:26:45.941Z,90.81
2016-12-18T01:27:12.592Z,91.03
2016-12-18T01:27:40.087Z,91.03
2016-12-18T01:28:01.945Z,91.06
2016-12-18T01:28:23.768Z,90.90
2016-12-18T01:28:45.509Z,90.73
2016-12-18T01:29:07.237Z,90.74
2016-12-18T01:29:55.588Z,90.70
2016-12-18T01:30:23.120Z,90.43
2016-12-18T01:31:20.046Z,90.15
2016-12-18T01:31:43.235Z,90.31
2016-12-18T01:32:05.252Z,90.17
2016-12-18T01:32:32.698Z,90.13
2016-12-18T01:32:59.077Z,89.90
2016-12-18T01:33:57.847Z,89.77
2016-12-18T01:34:24.160Z,89.80
2016-12-18T01:34:46.041Z,89.85
2016-12-18T01:35:07.808Z,89.93
2016-12-18T01:35:29.760Z,89.99
2016-12-18T01:35:51.578Z,89.94
2016-12-18T01:36:13.450Z,89.89
2016-12-18T01:36:40.027Z,89.72
2016-12-18T01:37:02.211Z,89.78
2016-12-18T01:37:23.999Z,89.86
2016-12-18T01:37:48.681Z,90.04
2016-12-18T01:38:11.420Z,90.13
2016-12-18T01:38:38.137Z,90.10
2016-12-18T01:39:00.427Z,90.04
2016-12-18T01:39:53.608Z,89.81
2016-12-18T01:40:16.345Z,89.94
2016-12-18T01:41:04.578Z,90.28
2016-12-18T01:41:26.443Z,90.24
2016-12-18T01:41:53.939Z,90.14
2016-12-18T01:42:20.470Z,90.13
2016-12-18T01:42:42.208Z,90.14
2016-12-18T01:43:03.949Z,89.95
2016-12-18T01:43:25.680Z,89.71
2016-12-18T01:43:47.497Z,89.75
2016-12-18T01:44:13.997Z,89.81
2016-12-18T01:45:11.766Z,90.02
2016-12-18T01:45:33.497Z,89.96
2016-12-18T01:45:56.224Z,90.09
2016-12-18T01:46:18.951Z,90.10
2016-12-18T01:46:45.460Z,90.03
2016-12-18T01:47:08.189Z,90.14
2016-12-18T01:47:56.455Z,89.98
2016-12-18T01:48:18.208Z,90.02
2016-12-18T01:48:40.273Z,89.93
2016-12-18T01:49:02.047Z,89.92
2016-12-18T01:49:33.377Z,89.90
2016-12-18T01:49:55.915Z,89.92
2016-12-18T01:50:17.796Z,89.89
2016-12-18T01:51:10.901Z,89.79
2016-12-18T01:51:37.397Z,89.93
2016-12-18T01:52:29.326Z,90.03
2016-12-18T01:52:55.818Z,90.05
2016-12-18T01:53:56.737Z,89.98
2016-12-18T01:54:18.496Z,89.99
2016-12-18T01:54:45.005Z,90.15
2016-12-18T01:55:16.276Z,90.16
2016-12-18T01:55:42.837Z,90.15
2016-12-18T01:56:14.095Z,90.38
2016-12-18T01:57:02.328Z,90.10
2016-12-18T01:57:28.860Z,89.80
2016-12-18T01:57:55.377Z,89.76
2016-12-18T01:58:21.880Z,89.38
2016-12-18T01:58:49.648Z,89.40
2016-12-18T01:59:25.682Z,89.43
2016-12-18T01:59:50.460Z,89.39
2016-12-18T02:00:13.223Z,89.45
2016-12-18T02:00:44.329Z,89.59
2016-12-18T02:01:06.182Z,89.44
2016-12-18T02:01:27.914Z,89.29
2016-12-18T02:01:49.718Z,89.24
2016-12-18T02:02:20.998Z,89.50
2016-12-18T02:02:52.274Z,89.75
2016-12-18T02:03:17.919Z,89.91
2016-12-18T02:03:39.685Z,89.75
2016-12-18T02:04:06.455Z,89.55
2016-12-18T02:04:29.197Z,89.27
2016-12-18T02:05:29.826Z,89.51
2016-12-18T02:06:22.948Z,89.27
2016-12-18T02:06:44.688Z,89.35
2016-12-18T02:07:06.492Z,89.15
2016-12-18T02:07:33.115Z,89.16
2016-12-18T02:07:59.663Z,89.08
2016-12-18T02:08:22.385Z,89.17
2016-12-18T02:08:45.147Z,89.32
2016-12-18T02:09:10.777Z,89.47
2016-12-18T02:09:35.079Z,89.61
2016-12-18T02:10:08.977Z,89.57
2016-12-18T02:11:34.242Z,89.88
2016-12-18T02:11:55.974Z,89.86
2016-12-18T02:12:18.704Z,89.89
2016-12-18T02:12:45.214Z,89.77
2016-12-18T02:13:07.959Z,89.52
2016-12-18T02:13:32.277Z,89.57
2016-12-18T02:13:54.032Z,89.46
2016-12-18T02:14:18.473Z,89.74
2016-12-18T02:14:45.978Z,89.79
2016-12-18T02:15:12.484Z,89.86
2016-12-18T02:15:43.747Z,89.95
2016-12-18T02:16:36.044Z,89.79
2016-12-18T02:17:01.554Z,89.89
2016-12-18T02:17:54.658Z,89.97
2016-12-18T02:18:16.398Z,90.10
2016-12-18T02:18:39.130Z,90.24
2016-12-18T02:19:01.982Z,90.33
2016-12-18T02:19:28.502Z,90.40
2016-12-18T02:19:51.241Z,90.52
2016-12-18T02:20:17.746Z,90.99
2016-12-18T02:20:49.021Z,91.25
2016-12-18T02:21:10.762Z,91.18
2016-12-18T02:21:37.254Z,90.87
2016-12-18T02:22:01.980Z,91.09
2016-12-18T02:22:23.741Z,90.85
2016-12-18T02:22:48.432Z,90.90
2016-12-18T02:23:11.184Z,91.06
2016-12-18T02:23:32.918Z,91.04
2016-12-18T02:23:55.669Z,90.75
2016-12-18T02:24:22.239Z,90.86
2016-12-18T02:24:43.991Z,90.87
2016-12-18T02:25:36.994Z,90.81
2016-12-18T02:26:01.707Z,91.07
2016-12-18T02:26:23.495Z,90.92
2016-12-18T02:27:12.930Z,91.27
2016-12-18T02:27:37.513Z,91.28
2016-12-18T02:27:59.319Z,91.13
2016-12-18T02:28:52.316Z,90.34
2016-12-18T02:29:45.325Z,90.10
2016-12-18T02:30:09.680Z,90.34
2016-12-18T02:31:00.826Z,90.70
2016-12-18T02:31:22.596Z,90.76
2016-12-18T02:32:11.173Z,90.63
2016-12-18T02:32:41.263Z,91.10
2016-12-18T02:33:05.653Z,91.32
2016-12-18T02:33:33.300Z,91.66
2016-12-18T02:33:59.898Z,91.75
2016-12-18T02:34:21.631Z,91.65
2016-12-18T02:34:43.369Z,91.64
2016-12-18T02:35:09.864Z,91.81
2016-12-18T02:35:41.127Z,91.93
2016-12-18T02:36:07.621Z,92.18
2016-12-18T02:36:29.389Z,92.39
2016-12-18T02:36:51.119Z,92.55
2016-12-18T02:37:42.188Z,91.94
2016-12-18T02:38:06.757Z,91.60
2016-12-18T02:38:31.065Z,91.49
2016-12-18T02:38:52.792Z,91.28
2016-12-18T02:39:24.097Z,91.62
2016-12-18T02:39:45.853Z,91.95
2016-12-18T02:40:12.353Z,91.98
2016-12-18T02:40:34.102Z,91.98
2016-12-18T02:41:03.389Z,92.28
2016-12-18T02:41:25.178Z,92.33
2016-12-18T02:41:51.844Z,92.42
2016-12-18T02:42:13.697Z,92.38
2016-12-18T02:42:35.455Z,92.38
2016-12-18T02:43:01.973Z,92.25
2016-12-18T02:43:28.509Z,92.23
2016-12-18T02:43:50.245Z,92.22
2016-12-18T02:44:11.977Z,92.15
2016-12-18T02:44:38.499Z,92.00
2016-12-18T02:45:05.004Z,91.96
2016-12-18T02:45:26.733Z,91.77
2016-12-18T02:45:57.834Z,91.21
2016-12-18T02:46:19.671Z,91.05
2016-12-18T02:46:46.195Z,91.03
2016-12-18T02:47:07.943Z,91.02
2016-12-18T02:47:39.218Z,91.03
2016-12-18T02:48:05.744Z,91.07
2016-12-18T02:48:33.293Z,91.18
2016-12-18T02:48:56.039Z,91.24
2016-12-18T02:49:27.369Z,91.24
2016-12-18T02:49:49.315Z,91.37
2016-12-18T02:50:11.047Z,91.53
2016-12-18T02:50:33.950Z,91.74
2016-12-18T02:50:56.742Z,92.03
2016-12-18T02:51:18.480Z,92.01
2016-12-18T02:51:41.315Z,91.97
2016-12-18T02:52:09.095Z,92.11
2016-12-18T02:52:30.870Z,92.21
2016-12-18T02:52:57.451Z,92.31
2016-12-18T02:53:19.248Z,92.19
2016-12-18T02:53:45.751Z,92.22
2016-12-18T02:54:07.499Z,92.11
2016-12-18T02:54:34.000Z,91.93
2016-12-18T02:55:00.661Z,91.66
2016-12-18T02:55:22.501Z,91.68
2016-12-18T02:55:48.999Z,91.88
2016-12-18T02:56:11.748Z,92.03
2016-12-18T02:56:33.503Z,92.04
2016-12-18T02:57:00.008Z,92.35
2016-12-18T02:57:21.745Z,92.39
2016-12-18T02:57:48.372Z,92.50
2016-12-18T02:58:10.342Z,92.59
2016-12-18T02:58:34.082Z,92.63
2016-12-18T02:58:55.803Z,92.71
2016-12-18T02:59:44.033Z,92.92
2016-12-18T03:00:05.772Z,92.98
2016-12-18T03:00:37.045Z,92.74
2016-12-18T03:01:01.713Z,92.49
2016-12-18T03:01:23.543Z,92.30
2016-12-18T03:02:16.736Z,91.74
2016-12-18T03:02:43.228Z,91.52
2016-12-18T03:04:03.083Z,91.49
2016-12-18T03:04:29.964Z,91.21
2016-12-18T03:04:55.607Z,91.06
2016-12-18T03:05:17.351Z,91.09
2016-12-18T03:06:05.683Z,91.10
2016-12-18T03:06:53.941Z,90.81
2016-12-18T03:07:15.707Z,90.72
2016-12-18T03:07:44.211Z,90.70
2016-12-18T03:08:06.297Z,90.67
2016-12-18T03:08:33.155Z,90.58
2016-12-18T03:08:59.700Z,90.54
2016-12-18T03:09:22.426Z,90.73
2016-12-18T03:09:48.916Z,91.14
2016-12-18T03:10:15.416Z,91.48
2016-12-18T03:10:37.149Z,91.64
2016-12-18T03:11:03.649Z,91.90
2016-12-18T03:11:25.377Z,91.81
2016-12-18T03:11:56.640Z,91.62
2016-12-18T03:12:18.393Z,91.32
2016-12-18T03:12:45.956Z,91.38
2016-12-18T03:13:12.469Z,91.25
2016-12-18T03:13:34.202Z,91.21
2016-12-18T03:13:56.052Z,91.28
2016-12-18T03:14:23.397Z,91.42
2016-12-18T03:14:50.904Z,91.33
2016-12-18T03:15:15.557Z,91.20
2016-12-18T03:16:08.792Z,91.11
2016-12-18T03:16:32.599Z,90.96
2016-12-18T03:16:54.333Z,90.94
2016-12-18T03:17:43.588Z,90.91
2016-12-18T03:18:08.036Z,90.80
2016-12-18T03:18:29.830Z,90.65
2016-12-18T03:18:57.325Z,90.58
2016-12-18T03:19:19.090Z,90.47
2016-12-18T03:20:07.341Z,90.92
2016-12-18T03:20:29.130Z,91.22
2016-12-18T03:20:55.758Z,91.36
2016-12-18T03:21:17.543Z,91.25
2016-12-18T03:21:44.052Z,90.75
2016-12-18T03:22:05.795Z,90.64
2016-12-18T03:22:37.135Z,90.69
2016-12-18T03:23:06.669Z,90.49
2016-12-18T03:24:01.048Z,90.57
2016-12-18T03:24:22.802Z,90.76
2016-12-18T03:25:20.614Z,90.71
2016-12-18T03:25:42.342Z,90.69
2016-12-18T03:26:08.886Z,90.85
2016-12-18T03:26:30.636Z,90.91
2016-12-18T03:26:57.131Z,90.97
2016-12-18T03:27:18.878Z,90.82
2016-12-18T03:27:40.614Z,90.98
2016-12-18T03:28:02.481Z,91.20
2016-12-18T03:28:56.515Z,91.70
2016-12-18T03:29:23.027Z,91.99
2016-12-18T03:29:44.759Z,92.08
2016-12-18T03:30:11.281Z,92.21
2016-12-18T03:30:35.023Z,92.25
2016-12-18T03:30:56.769Z,92.27
2016-12-18T03:31:23.442Z,92.18
2016-12-18T03:31:45.211Z,92.08
2016-12-18T03:32:11.723Z,91.82
2016-12-18T03:32:34.462Z,91.73
2016-12-18T03:32:56.205Z,91.62
2016-12-18T03:33:18.948Z,91.55
2016-12-18T03:33:40.691Z,91.34
2016-12-18T03:34:07.218Z,91.18
2016-12-18T03:34:28.970Z,90.83
2016-12-18T03:35:22.072Z,90.92
2016-12-18T03:35:48.582Z,91.15
2016-12-18T03:36:13.404Z,91.06
2016-12-18T03:36:35.195Z,91.01
2016-12-18T03:37:01.704Z,90.99
2016-12-18T03:37:28.229Z,90.85
2016-12-18T03:37:49.972Z,90.70
2016-12-18T03:38:11.703Z,90.63
2016-12-18T03:38:33.435Z,90.65
2016-12-18T03:38:56.174Z,90.56
2016-12-18T03:39:17.901Z,90.51
2016-12-18T03:39:44.421Z,90.48
2016-12-18T03:40:07.306Z,90.66
2016-12-18T03:40:34.809Z,90.72
2016-12-18T03:41:06.075Z,90.99
2016-12-18T03:42:29.580Z,90.92
2016-12-18T03:42:56.076Z,90.58
2016-12-18T03:43:22.709Z,90.50
2016-12-18T03:44:20.486Z,90.28
2016-12-18T03:44:52.750Z,90.44
2016-12-18T03:45:14.528Z,90.62
2016-12-18T03:45:37.285Z,90.73
2016-12-18T03:46:00.112Z,91.01
2016-12-18T03:46:21.842Z,91.22
2016-12-18T03:46:48.360Z,91.58
2016-12-18T03:47:14.877Z,91.55
2016-12-18T03:48:03.113Z,91.32
2016-12-18T03:48:54.019Z,90.81
2016-12-18T03:49:20.528Z,90.64
2016-12-18T03:49:43.261Z,90.78
2016-12-18T03:50:14.534Z,90.78
2016-12-18T03:50:41.038Z,90.79
2016-12-18T03:51:02.767Z,90.83
2016-12-18T03:51:55.782Z,90.75
2016-12-18T03:52:17.531Z,90.86
2016-12-18T03:52:39.266Z,90.94
2016-12-18T03:53:08.588Z,91.22
2016-12-18T03:53:35.224Z,91.40
2016-12-18T03:53:56.979Z,91.36
2016-12-18T03:54:28.004Z,91.41
2016-12-18T03:54:49.938Z,91.45
2016-12-18T03:55:12.787Z,91.42
2016-12-18T03:55:34.525Z,91.21
2016-12-18T03:56:01.022Z,90.93
2016-12-18T03:56:22.766Z,90.94
2016-12-18T03:56:45.591Z,90.91
2016-12-18T03:57:12.127Z,90.99
2016-12-18T03:57:33.873Z,91.23
2016-12-18T03:58:01.435Z,91.27
2016-12-18T03:58:23.361Z,91.47
2016-12-18T03:58:46.092Z,91.42
2016-12-18T03:59:43.967Z,91.31
2016-12-18T04:00:11.475Z,91.15
2016-12-18T04:00:34.263Z,90.77
2016-12-18T04:00:56.343Z,90.47
2016-12-18T04:01:18.099Z,90.52
2016-12-18T04:01:39.875Z,90.38
2016-12-18T04:02:06.513Z,90.43
2016-12-18T04:02:28.291Z,90.42
2016-12-18T04:03:16.941Z,90.56
2016-12-18T04:04:14.988Z,90.92
2016-12-18T04:04:36.939Z,90.95
2016-12-18T04:04:59.047Z,91.05
2016-12-18T04:05:20.836Z,90.93
2016-12-18T04:05:42.586Z,90.92
2016-12-18T04:06:04.332Z,90.87
2016-12-18T04:06:26.073Z,90.89
2016-12-18T04:06:48.894Z,90.83
2016-12-18T04:07:11.644Z,91.07
2016-12-18T04:07:38.145Z,91.21
2016-12-18T04:07:59.897Z,91.20
2016-12-18T04:08:21.766Z,91.30
2016-12-18T04:08:43.487Z,91.13
2016-12-18T04:09:06.232Z,90.91
2016-12-18T04:09:54.463Z,90.94
2016-12-18T04:10:17.202Z,91.11
2016-12-18T04:10:38.970Z,91.25
2016-12-18T04:11:01.024Z,91.34
2016-12-18T04:11:22.782Z,91.29
2016-12-18T04:11:50.281Z,91.25
2016-12-18T04:12:12.178Z,91.16
2016-12-18T04:12:35.942Z,91.09
2016-12-18T04:12:58.031Z,90.93
2016-12-18T04:13:19.769Z,90.69
2016-12-18T04:13:46.293Z,90.52
2016-12-18T04:14:08.064Z,90.53
2016-12-18T04:14:39.490Z,90.66
2016-12-18T04:15:06.036Z,90.75
2016-12-18T04:15:27.910Z,90.67
2016-12-18T04:15:49.670Z,90.81
2016-12-18T04:16:38.980Z,90.97
2016-12-18T04:17:00.919Z,90.67
2016-12-18T04:17:27.467Z,90.58
2016-12-18T04:17:50.209Z,90.62
2016-12-18T04:18:12.947Z,90.64
2016-12-18T04:18:35.014Z,90.62
2016-12-18T04:19:28.022Z,90.43
2016-12-18T04:19:54.525Z,90.40
2016-12-18T04:20:56.872Z,90.27
2016-12-18T04:21:18.600Z,90.48
2016-12-18T04:22:08.904Z,90.42
2016-12-18T04:22:31.651Z,90.47
2016-12-18T04:22:56.291Z,90.72
2016-12-18T04:23:27.576Z,90.80
2016-12-18T04:23:49.415Z,90.77
2016-12-18T04:24:11.346Z,90.85
2016-12-18T04:24:39.173Z,91.11
2016-12-18T04:25:01.138Z,91.19
2016-12-18T04:25:22.874Z,91.18
2016-12-18T04:25:44.613Z,91.08
2016-12-18T04:26:11.166Z,91.00
2016-12-18T04:27:00.552Z,91.14
2016-12-18T04:27:23.548Z,91.18
2016-12-18T04:27:45.665Z,90.96
2016-12-18T04:28:12.167Z,90.82
2016-12-18T04:28:33.914Z,90.82
2016-12-18T04:28:55.894Z,90.92
2016-12-18T04:29:18.428Z,90.86
2016-12-18T04:29:40.359Z,90.83
2016-12-18T04:30:06.867Z,90.96
2016-12-18T04:30:31.452Z,91.12
2016-12-18T04:30:53.225Z,90.98
2016-12-18T04:31:16.143Z,91.02
2016-12-18T04:31:38.086Z,90.99
2016-12-18T04:31:59.854Z,90.98
2016-12-18T04:32:27.379Z,90.77
2016-12-18T04:32:53.923Z,90.62
2016-12-18T04:33:20.441Z,90.35
2016-12-18T04:33:43.176Z,90.37
2016-12-18T04:34:05.032Z,90.45
2016-12-18T04:34:31.527Z,90.81
2016-12-18T04:34:54.275Z,90.73
2016-12-18T04:35:44.677Z,91.20
2016-12-18T04:36:12.231Z,91.35
2016-12-18T04:36:33.966Z,91.38
2016-12-18T04:36:57.101Z,91.30
2016-12-18T04:37:48.481Z,91.07
2016-12-18T04:38:10.221Z,91.01
2016-12-18T04:38:32.181Z,90.98
2016-12-18T04:38:58.554Z,91.20
2016-12-18T04:39:25.083Z,91.42
2016-12-18T04:39:46.931Z,91.36
2016-12-18T04:40:14.743Z,91.28
2016-12-18T04:40:36.474Z,91.15
2016-12-18T04:40:58.435Z,91.08
2016-12-18T04:41:20.174Z,91.33
2016-12-18T04:41:41.949Z,91.20
2016-12-18T04:42:13.213Z,91.08
2016-12-18T04:42:34.956Z,91.06
2016-12-18T04:42:56.716Z,90.99
2016-12-18T04:43:18.499Z,91.15
2016-12-18T04:43:40.445Z,91.34
2016-12-18T04:44:02.578Z,91.51
2016-12-18T04:44:33.851Z,91.73
2016-12-18T04:44:56.589Z,91.79
2016-12-18T04:45:22.147Z,91.95
2016-12-18T04:45:43.885Z,92.12
2016-12-18T04:46:10.383Z,91.99
2016-12-18T04:46:58.720Z,91.44
2016-12-18T04:47:25.319Z,91.61
2016-12-18T04:47:48.068Z,91.53
2016-12-18T04:48:36.307Z,90.96
2016-12-18T04:49:02.819Z,90.69
2016-12-18T04:49:51.125Z,90.85
2016-12-18T04:50:18.848Z,91.12
2016-12-18T04:50:40.621Z,91.21
2016-12-18T04:51:02.432Z,91.29
2016-12-18T04:51:24.376Z,91.28
2016-12-18T04:51:47.168Z,91.51
2016-12-18T04:52:13.692Z,91.57
2016-12-18T04:52:40.201Z,91.53
2016-12-18T04:53:02.055Z,91.74
2016-12-18T04:53:55.177Z,91.45
2016-12-18T04:54:21.688Z,91.30
2016-12-18T04:54:43.413Z,91.16
2016-12-18T04:55:06.144Z,91.03
2016-12-18T04:55:32.652Z,90.90
2016-12-18T04:55:55.414Z,90.90
2016-12-18T04:56:21.916Z,90.89
2016-12-18T04:56:58.152Z,90.94
2016-12-18T04:57:19.852Z,91.04
2016-12-18T04:57:41.596Z,91.04
2016-12-18T04:58:30.843Z,91.42
2016-12-18T04:58:52.855Z,91.57
2016-12-18T04:59:14.927Z,91.61
2016-12-18T05:00:04.434Z,91.00
2016-12-18T05:00:30.956Z,90.97
2016-12-18T05:01:00.248Z,90.82
2016-12-18T05:01:32.523Z,90.95
2016-12-18T05:02:00.367Z,90.94
2016-12-18T05:02:23.429Z,91.05
2016-12-18T05:02:45.287Z,91.14
2016-12-18T05:03:11.827Z,91.33
2016-12-18T05:04:01.093Z,91.36
2016-12-18T05:04:27.590Z,91.26
2016-12-18T05:04:55.143Z,91.26
2016-12-18T05:05:21.695Z,91.13
2016-12-18T05:05:44.796Z,90.94
2016-12-18T05:06:06.588Z,90.84
2016-12-18T05:06:28.580Z,90.77
2016-12-18T05:06:50.476Z,90.70
2016-12-18T05:07:14.419Z,90.59
2016-12-18T05:07:41.916Z,90.56
2016-12-18T05:08:03.669Z,90.68
2016-12-18T05:08:30.175Z,90.97
2016-12-18T05:08:52.908Z,91.28
2016-12-18T05:09:17.161Z,91.35
2016-12-18T05:09:38.905Z,91.29
2016-12-18T05:10:01.638Z,91.14
2016-12-18T05:10:25.379Z,91.01
2016-12-18T05:10:47.117Z,90.94
2016-12-18T05:11:13.618Z,90.82
2016-12-18T05:11:40.124Z,90.53
2016-12-18T05:12:06.762Z,90.68
2016-12-18T05:12:40.038Z,90.61
2016-12-18T05:14:05.304Z,90.78
2016-12-18T05:15:25.130Z,90.44
2016-12-18T05:15:57.396Z,90.54
2016-12-18T05:16:23.913Z,90.62
2016-12-18T05:16:53.304Z,90.65
2016-12-18T05:17:20.926Z,90.77
2016-12-18T05:17:46.494Z,90.71
2016-12-18T05:18:14.001Z,90.75
2016-12-18T05:18:35.845Z,90.63
2016-12-18T05:19:02.460Z,90.59
2016-12-18T05:19:29.019Z,90.55
2016-12-18T05:20:00.292Z,90.73
2016-12-18T05:20:26.845Z,91.08
2016-12-18T05:20:53.463Z,91.25
2016-12-18T05:21:15.476Z,91.40
2016-12-18T05:21:37.358Z,91.42
2016-12-18T05:22:03.927Z,91.47
2016-12-18T05:22:35.195Z,91.49
2016-12-18T05:22:56.931Z,91.45
2016-12-18T05:23:23.554Z,91.44
2016-12-18T05:23:45.768Z,91.33
2016-12-18T05:24:07.523Z,91.17
2016-12-18T05:24:29.439Z,90.91
2016-12-18T05:24:55.973Z,90.79
2016-12-18T05:25:17.825Z,90.92
2016-12-18T05:25:39.555Z,91.15
2016-12-18T05:26:01.314Z,91.19
2016-12-18T05:26:24.258Z,91.11
2016-12-18T05:26:46.126Z,91.09
2016-12-18T05:27:09.044Z,91.02
2016-12-18T05:27:30.929Z,91.15
2016-12-18T05:27:52.854Z,91.07
2016-12-18T05:28:17.486Z,90.85
2016-12-18T05:28:40.220Z,90.76
2016-12-18T05:29:02.032Z,90.78
2016-12-18T05:29:24.380Z,90.62
2016-12-18T05:29:46.476Z,90.68
2016-12-18T05:30:34.975Z,90.71
2016-12-18T05:30:58.138Z,90.70
2016-12-18T05:31:19.916Z,91.07
2016-12-18T05:31:44.060Z,91.36
2016-12-18T05:32:06.932Z,91.70
2016-12-18T05:32:28.903Z,91.97
2016-12-18T05:32:50.769Z,92.00
2016-12-18T05:34:11.416Z,91.77
2016-12-18T05:34:59.662Z,91.54
2016-12-18T05:35:26.243Z,91.51
2016-12-18T05:35:48.974Z,91.43
2016-12-18T05:36:11.960Z,91.37
2016-12-18T05:36:38.409Z,91.22
2016-12-18T05:37:00.140Z,91.20
2016-12-18T05:37:26.667Z,91.19
2016-12-18T05:37:54.190Z,91.16
2016-12-18T05:38:16.920Z,91.03
2016-12-18T05:38:43.418Z,90.92
2016-12-18T05:39:05.201Z,91.10
2016-12-18T05:39:36.623Z,91.25
2016-12-18T05:39:59.440Z,91.40
2016-12-18T05:40:21.186Z,91.51
2016-12-18T05:40:42.919Z,91.40
2016-12-18T05:41:04.654Z,91.31
2016-12-18T05:42:29.919Z,91.38
2016-12-18T05:42:55.395Z,91.40
2016-12-18T05:43:19.677Z,91.51
2016-12-18T05:43:42.487Z,91.46
2016-12-18T05:44:10.977Z,91.35
2016-12-18T05:45:04.008Z,91.60
2016-12-18T05:45:25.833Z,91.67
2016-12-18T05:45:52.333Z,91.51
2016-12-18T05:46:18.844Z,91.52
2016-12-18T05:46:40.708Z,91.51
2016-12-18T05:47:03.439Z,91.38
2016-12-18T05:47:25.180Z,91.36
2016-12-18T05:47:46.934Z,91.29
2016-12-18T05:48:08.704Z,91.33
2016-12-18T05:48:30.449Z,91.29
2016-12-18T05:48:54.979Z,91.47
2016-12-18T05:49:16.710Z,91.35
2016-12-18T05:49:39.463Z,91.18
2016-12-18T05:50:02.204Z,91.04
2016-12-18T05:50:28.715Z,91.26
2016-12-18T05:50:55.211Z,91.08
2016-12-18T05:51:22.750Z,91.33
2016-12-18T05:51:45.475Z,91.52
2016-12-18T05:52:11.966Z,91.53
2016-12-18T05:52:38.489Z,91.53
2016-12-18T05:53:00.325Z,91.67
2016-12-18T05:53:51.665Z,91.73
2016-12-18T05:54:19.163Z,91.68